Time;durP1;ratioP1;P1;durP2;ratioP2;P2;SDS_P1;SDS_P2;PMS_P1;PMS_P2;Temp;Humidity;BMP_temperature;BMP_pressure;BME280_temperature;BME280_humidity;BME280_pressure;Samples;Min_cycle;Max_cycle;Signal;HPM_P1;HPM_P2
2023/09/06 00:01:25;;;;;;;2.70;0.70;;;;;;;20.91;70.15;95519.06;5073299;28;20491;-59
2023/09/06 00:03:55;;;;;;;0.40;0.30;;;;;;;21.24;71.37;95581.94;5073034;28;20441;-58
2023/09/06 00:06:24;;;;;;;0.53;0.53;;;;;;;21.16;70.77;95574.69;5072901;28;20441;-58
2023/09/06 00:08:52;;;;;;;1.53;1.43;;;;;;;21.00;70.99;95595.22;5072662;28;20938;-59
2023/09/06 00:11:21;;;;;;;0.80;0.70;;;;;;;21.12;71.78;95583.78;5072567;28;20473;-58
2023/09/06 00:13:49;;;;;;;0.60;0.50;;;;;;;21.07;70.65;95587.47;5072883;28;20499;-58
2023/09/06 00:16:18;;;;;;;0.53;0.53;;;;;;;21.01;70.76;95572.56;5072406;28;20498;-58
2023/09/06 00:18:46;;;;;;;0.80;0.70;;;;;;;21.00;71.77;95570.97;5073041;28;20452;-59
2023/09/06 00:21:46;;;;;;;0.60;0.40;;;;;;;20.94;71.44;95550.75;5072063;28;20499;-58
2023/09/06 00:24:15;;;;;;;0.60;0.60;;;;;;;21.17;71.08;95565.50;5072259;28;20477;-58
2023/09/06 00:26:44;;;;;;;1.70;0.77;;;;;;;21.06;71.08;95566.22;5072378;28;20476;-58
2023/09/06 00:29:12;;;;;;;1.10;0.90;;;;;;;21.09;71.34;95558.28;5072328;28;20457;-58
2023/09/06 00:31:41;;;;;;;1.27;1.27;;;;;;;20.96;71.61;95570.06;5072353;28;21042;-58
2023/09/06 00:34:09;;;;;;;0.50;0.50;;;;;;;21.11;72.23;95572.22;5071811;28;20449;-58
2023/09/06 00:36:37;;;;;;;0.50;0.50;;;;;;;21.05;71.24;95575.41;5072577;28;20482;-59
2023/09/06 00:39:09;;;;;;;0.53;0.53;;;;;;;20.91;71.51;95562.19;5072196;28;20472;-59
2023/09/06 00:41:39;;;;;;;1.33;1.23;;;;;;;20.97;71.47;95570.88;5071973;28;20429;-58
2023/09/06 00:44:08;;;;;;;4.20;0.97;;;;;;;21.00;71.12;95570.97;5072050;28;20492;-58
2023/09/06 00:46:37;;;;;;;0.67;0.67;;;;;;;21.02;71.03;95567.97;5072054;28;20449;-59
2023/09/06 00:49:07;;;;;;;0.60;0.40;;;;;;;21.18;73.35;95569.75;5071578;28;20445;-58
2023/09/06 00:51:36;;;;;;;2.63;0.77;;;;;;;20.99;70.34;95561.34;5071676;28;20484;-58
2023/09/06 00:54:04;;;;;;;1.00;0.60;;;;;;;21.05;70.83;95568.09;5071362;28;20471;-59
2023/09/06 00:56:34;;;;;;;0.70;0.70;;;;;;;21.08;70.35;95574.75;5071656;28;20495;-58
2023/09/06 00:59:02;;;;;;;1.07;1.07;;;;;;;21.30;70.03;95572.50;5071647;28;20492;-58
2023/09/06 01:01:33;;;;;;;0.50;0.47;;;;;;;21.39;70.12;95575.94;5071656;28;20472;-58
2023/09/06 01:04:02;;;;;;;0.50;0.37;;;;;;;21.21;69.64;95573.72;5071734;28;20448;-58
2023/09/06 01:06:35;;;;;;;0.50;0.37;;;;;;;21.35;69.93;95569.59;5071814;28;20437;-59
2023/09/06 01:09:05;;;;;;;0.53;0.40;;;;;;;21.63;72.11;95575.22;5071987;28;20441;-59
2023/09/06 01:11:38;;;;;;;1.83;1.70;;;;;;;21.30;70.09;95569.81;5071283;28;20477;-59
2023/09/06 01:14:07;;;;;;;0.70;0.50;;;;;;;21.35;70.73;95566.91;5071625;28;21004;-59
2023/09/06 01:16:41;;;;;;;0.50;0.40;;;;;;;21.40;69.80;95566.72;5071004;28;21026;-59
2023/09/06 01:19:15;;;;;;;1.40;1.30;;;;;;;21.16;70.43;95547.75;5071110;28;20523;-59
2023/09/06 01:21:50;;;;;;;0.60;0.50;;;;;;;21.34;71.23;95556.47;5071482;28;20445;-59
2023/09/06 01:24:21;;;;;;;0.40;0.30;;;;;;;21.50;70.47;95544.72;5071145;28;20433;-59
2023/09/06 01:26:50;;;;;;;1.00;1.00;;;;;;;21.28;69.74;95565.88;5071763;28;20441;-59
2023/09/06 01:29:19;;;;;;;1.03;0.67;;;;;;;21.43;71.67;95562.56;5071493;28;20937;-59
2023/09/06 01:31:47;;;;;;;0.70;0.50;;;;;;;21.28;70.34;95547.78;5071225;28;21017;-58
2023/09/06 01:34:16;;;;;;;0.60;0.60;;;;;;;21.57;70.29;95554.19;5070720;28;20921;-59
2023/09/06 01:36:44;;;;;;;0.40;0.30;;;;;;;21.56;69.76;95550.69;5071278;28;20449;-59
2023/09/06 01:39:13;;;;;;;0.67;0.67;;;;;;;21.52;70.06;95539.81;5070667;28;20441;-59
2023/09/06 01:41:43;;;;;;;0.57;0.43;;;;;;;21.72;69.64;95546.25;5071357;28;20440;-59
2023/09/06 01:44:11;;;;;;;0.90;0.90;;;;;;;21.56;69.78;95547.22;5071623;28;20441;-59
2023/09/06 01:46:39;;;;;;;0.40;0.30;;;;;;;21.64;69.99;95549.03;5071319;28;20494;-59
2023/09/06 01:49:09;;;;;;;0.50;0.50;;;;;;;21.47;70.49;95515.75;5044704;28;20452;-58
2023/09/06 01:51:37;;;;;;;0.40;0.30;;;;;;;21.58;69.70;95543.06;5070388;28;21223;-59
2023/09/06 01:54:07;;;;;;;0.57;0.50;;;;;;;21.45;70.24;95530.69;5071141;28;20452;-58
2023/09/06 01:56:35;;;;;;;0.70;0.60;;;;;;;21.60;70.04;95545.44;5070618;28;20437;-59
2023/09/06 01:59:05;;;;;;;0.50;0.43;;;;;;;21.50;69.50;95544.72;5071122;28;20564;-59
2023/09/06 02:01:34;;;;;;;0.60;0.33;;;;;;;21.44;70.49;95521.78;5070594;28;20527;-59
2023/09/06 02:04:05;;;;;;;0.50;0.43;;;;;;;21.70;70.41;95543.09;5071187;28;20441;-59
2023/09/06 02:06:34;;;;;;;0.60;0.60;;;;;;;21.45;71.95;95534.13;5070335;28;20437;-59
2023/09/06 02:09:03;;;;;;;0.60;0.60;;;;;;;21.30;70.27;95542.84;5070616;28;20448;-59
2023/09/06 02:11:34;;;;;;;0.70;0.63;;;;;;;21.30;71.02;95542.84;5057483;28;20477;-59
2023/09/06 02:14:02;;;;;;;2.70;1.70;;;;;;;21.42;71.13;95544.81;5071015;28;20495;-59
2023/09/06 02:16:32;;;;;;;0.80;0.50;;;;;;;21.53;70.60;95527.88;5070659;28;20461;-58
2023/09/06 02:19:00;;;;;;;0.70;0.40;;;;;;;21.59;70.47;95533.06;5071313;28;20468;-59
2023/09/06 02:21:29;;;;;;;0.40;0.30;;;;;;;21.45;71.69;95533.38;5057373;28;20440;-58
2023/09/06 02:23:58;;;;;;;0.60;0.53;;;;;;;21.40;70.89;95537.03;5071083;28;20533;-58
2023/09/06 02:26:26;;;;;;;0.70;0.70;;;;;;;21.40;71.81;95531.66;5070614;28;20895;-58
2023/09/06 02:28:54;;;;;;;0.93;0.70;;;;;;;21.33;71.97;95536.81;5070506;28;20437;-58
2023/09/06 02:31:23;;;;;;;1.07;1.07;;;;;;;21.11;72.19;95528.28;5070946;28;20554;-58
2023/09/06 02:33:55;;;;;;;0.70;0.60;;;;;;;21.07;72.56;95532.78;5070698;28;20449;-58
2023/09/06 02:36:23;;;;;;;1.87;0.50;;;;;;;21.16;73.22;95520.00;5070562;28;20470;-58
2023/09/06 02:38:51;;;;;;;0.73;0.73;;;;;;;21.01;73.58;95520.56;5070372;28;20442;-59
2023/09/06 02:41:20;;;;;;;2.50;0.80;;;;;;;21.12;74.07;95517.19;5070754;28;20557;-59
2023/09/06 02:43:49;;;;;;;0.60;0.60;;;;;;;20.78;73.37;95467.03;5069867;28;20441;-58
2023/09/06 02:46:17;;;;;;;0.67;0.63;;;;;;;20.86;74.31;95482.34;5070272;28;21016;-59
2023/09/06 02:48:46;;;;;;;0.67;0.40;;;;;;;21.13;74.01;95516.06;5070695;28;20789;-59
2023/09/06 02:51:16;;;;;;;0.50;0.40;;;;;;;21.15;73.91;95504.97;5071299;28;21016;-59
2023/09/06 02:53:46;;;;;;;1.43;0.70;;;;;;;21.31;73.32;95511.28;5074648;28;20552;-59
2023/09/06 02:56:15;;;;;;;3.70;0.50;;;;;;;21.03;73.21;95491.38;5074568;28;20444;-59
2023/09/06 02:58:45;;;;;;;0.83;0.83;;;;;;;21.12;72.71;95517.19;5060634;28;20937;-59
2023/09/06 03:01:19;;;;;;;1.73;0.70;;;;;;;21.15;73.66;95513.81;5074028;28;20502;-59
2023/09/06 03:03:51;;;;;;;0.50;0.40;;;;;;;21.19;74.67;95519.34;5073638;28;20447;-58
2023/09/06 03:06:32;;;;;;;0.70;0.67;;;;;;;21.09;73.07;95487.41;5073452;28;20476;-59
2023/09/06 03:09:06;;;;;;;0.80;0.60;;;;;;;21.14;74.13;95523.03;5074373;28;20516;-59
2023/09/06 03:11:35;;;;;;;0.60;0.40;;;;;;;21.07;73.93;95512.00;5073962;28;20433;-58
2023/09/06 03:14:04;;;;;;;2.70;0.70;;;;;;;21.21;73.63;95500.91;5074062;28;20824;-59
2023/09/06 03:16:38;;;;;;;1.17;1.10;;;;;;;21.07;74.90;95516.59;5073178;28;20429;-59
2023/09/06 03:19:09;;;;;;;1.10;0.67;;;;;;;21.22;74.01;95519.47;5072606;28;20536;-59
2023/09/06 03:21:39;;;;;;;0.50;0.40;;;;;;;21.20;73.95;95521.69;5046975;28;20441;-59
2023/09/06 03:24:11;;;;;;;0.50;0.40;;;;;;;21.13;73.55;95489.09;5073996;28;20456;-59
2023/09/06 03:26:43;;;;;;;0.60;0.50;;;;;;;21.24;74.24;95527.22;5073733;28;20441;-59
2023/09/06 03:29:15;;;;;;;0.93;0.47;;;;;;;21.35;73.77;95534.56;5073510;28;20449;-59
2023/09/06 03:31:43;;;;;;;0.60;0.60;;;;;;;21.25;74.04;95537.66;5073754;28;20516;-59
2023/09/06 03:34:15;;;;;;;0.60;0.50;;;;;;;20.95;74.67;95505.75;5073018;28;20448;-58
2023/09/06 03:36:47;;;;;;;0.50;0.47;;;;;;;21.29;74.26;95537.81;5061958;28;20434;-58
2023/09/06 03:39:15;;;;;;;1.77;0.60;;;;;;;21.33;74.00;95527.91;5071944;28;21019;-58
2023/09/06 03:41:46;;;;;;;0.77;0.77;;;;;;;21.13;74.38;95536.81;5072849;28;20468;-58
2023/09/06 03:44:14;;;;;;;0.60;0.60;;;;;;;21.01;74.45;95525.97;5072986;28;20443;-59
2023/09/06 03:46:42;;;;;;;0.50;0.50;;;;;;;21.17;74.41;95535.84;5073643;28;20822;-58
2023/09/06 03:49:13;;;;;;;0.50;0.40;;;;;;;21.16;75.05;95531.56;5073263;28;20896;-58
2023/09/06 03:51:42;;;;;;;0.50;0.40;;;;;;;21.17;74.66;95541.25;5072517;28;20442;-58
2023/09/06 03:54:12;;;;;;;0.60;0.50;;;;;;;21.47;73.36;95544.63;5072578;28;20456;-59
2023/09/06 03:56:41;;;;;;;0.50;0.50;;;;;;;21.29;74.88;95538.59;5073366;28;20808;-59
2023/09/06 03:59:09;;;;;;;1.43;0.87;;;;;;;21.27;74.72;95548.94;5072978;28;20507;-58
2023/09/06 04:01:38;;;;;;;0.43;0.40;;;;;;;21.11;74.22;95553.34;5072378;28;20440;-58
2023/09/06 04:04:08;;;;;;;0.67;0.50;;;;;;;21.04;75.56;95552.25;5072461;28;20945;-59
2023/09/06 04:06:36;;;;;;;0.50;0.40;;;;;;;21.03;75.95;95554.16;5071767;28;20442;-58
2023/09/06 04:09:07;;;;;;;0.70;0.50;;;;;;;21.11;74.94;95545.25;5072846;28;21032;-59
2023/09/06 04:11:37;;;;;;;0.57;0.47;;;;;;;21.09;75.70;95563.66;5072420;28;20445;-58
2023/09/06 04:14:05;;;;;;;0.73;0.50;;;;;;;20.90;76.22;95528.25;5071912;28;20538;-59
2023/09/06 04:16:35;;;;;;;1.00;0.80;;;;;;;20.87;77.16;95558.59;5072105;28;20790;-58
2023/09/06 04:19:05;;;;;;;2.33;0.70;;;;;;;20.98;75.94;95556.25;5072194;28;20441;-59
2023/09/06 04:21:33;;;;;;;0.60;0.40;;;;;;;20.76;76.92;95525.06;5072475;28;20955;-51
2023/09/06 04:24:02;;;;;;;0.60;0.50;;;;;;;20.63;76.73;95499.94;5071829;28;20448;-51
2023/09/06 04:26:30;;;;;;;0.60;0.60;;;;;;;20.81;77.39;95528.34;5072200;28;20437;-51
2023/09/06 04:29:03;;;;;;;0.40;0.30;;;;;;;21.16;77.31;95563.91;5072598;28;20450;-51
2023/09/06 04:31:32;;;;;;;0.50;0.40;;;;;;;21.07;77.49;95555.13;5072044;28;20445;-51
2023/09/06 04:34:02;;;;;;;1.80;0.40;;;;;;;20.89;76.60;95488.97;5071805;28;20485;-51
2023/09/06 04:36:30;;;;;;;1.77;1.33;;;;;;;20.92;76.42;95528.75;5072044;28;20495;-51
2023/09/06 04:38:59;;;;;;;2.30;1.63;;;;;;;21.14;77.02;95563.47;5055515;28;20434;-51
2023/09/06 04:41:31;;;;;;;0.43;0.40;;;;;;;21.12;77.13;95554.13;5062398;28;20464;-51
2023/09/06 04:44:00;;;;;;;0.60;0.53;;;;;;;21.20;75.63;95554.03;5071145;28;20456;-52
2023/09/06 04:46:29;;;;;;;0.60;0.57;;;;;;;21.56;75.24;95558.00;5071800;28;20442;-53
2023/09/06 04:48:57;;;;;;;0.60;0.50;;;;;;;21.51;75.31;95565.19;5070930;28;20854;-52
2023/09/06 04:51:27;;;;;;;0.80;0.53;;;;;;;21.08;74.62;95518.16;5071989;28;20437;-52
2023/09/06 04:53:55;;;;;;;0.60;0.60;;;;;;;21.34;74.83;95568.06;5071303;28;20477;-52
2023/09/06 04:56:25;;;;;;;0.50;0.33;;;;;;;21.39;75.54;95573.25;5071443;28;20827;-51
2023/09/06 04:58:54;;;;;;;0.70;0.47;;;;;;;21.38;76.17;95573.56;5038686;28;20814;-51
2023/09/06 05:01:24;;;;;;;0.70;0.50;;;;;;;21.40;75.68;95579.44;5064897;28;20533;-51
2023/09/06 05:03:52;;;;;;;0.53;0.37;;;;;;;21.54;76.06;95585.31;5071518;28;20535;-51
2023/09/06 05:06:20;;;;;;;0.60;0.30;;;;;;;21.68;74.63;95583.09;5071029;28;20445;-52
2023/09/06 05:08:49;;;;;;;0.53;0.47;;;;;;;21.67;73.62;95578.84;5071806;28;20441;-52
2023/09/06 05:11:17;;;;;;;0.40;0.30;;;;;;;21.53;75.14;95560.25;5071686;28;20495;-52
2023/09/06 05:13:46;;;;;;;0.67;0.60;;;;;;;21.63;74.29;95537.44;5071115;28;20477;-52
2023/09/06 05:16:14;;;;;;;1.03;0.50;;;;;;;21.93;74.99;95575.91;5071529;28;20502;-52
2023/09/06 05:18:44;;;;;;;0.50;0.50;;;;;;;21.66;74.10;95534.09;5070814;28;20491;-52
2023/09/06 05:21:17;;;;;;;0.77;0.57;;;;;;;21.76;74.31;95586.84;5071000;28;20434;-51
2023/09/06 05:23:45;;;;;;;0.40;0.30;;;;;;;21.71;75.10;95584.34;5071181;28;20856;-51
2023/09/06 05:26:13;;;;;;;0.40;0.30;;;;;;;21.91;74.73;95588.91;5071090;28;20532;-52
2023/09/06 05:28:42;;;;;;;0.50;0.30;;;;;;;22.06;74.58;95591.78;5071249;28;20562;-51
2023/09/06 05:31:11;;;;;;;0.40;0.27;;;;;;;22.04;73.96;95587.84;5071329;28;20948;-52
2023/09/06 05:33:39;;;;;;;0.40;0.30;;;;;;;22.10;73.95;95595.41;5071193;28;20464;-51
2023/09/06 05:36:09;;;;;;;0.40;0.27;;;;;;;21.98;74.38;95594.59;5071041;28;20444;-51
2023/09/06 05:38:38;;;;;;;1.03;1.03;;;;;;;21.99;74.53;95602.34;5071106;28;20445;-51
2023/09/06 05:41:06;;;;;;;0.50;0.30;;;;;;;22.24;73.49;95600.47;5070808;28;20441;-51
2023/09/06 05:43:39;;;;;;;0.40;0.30;;;;;;;22.41;72.91;95605.69;5070977;28;20528;-51
2023/09/06 05:46:07;;;;;;;0.50;0.30;;;;;;;22.41;73.25;95611.06;5070487;28;20441;-51
2023/09/06 05:48:56;;;;;;;0.40;0.30;;;;;;;22.42;73.20;95606.44;5070459;28;20460;-51
2023/09/06 05:51:25;;;;;;;0.40;0.30;;;;;;;22.50;73.20;95600.94;5070892;28;20953;-51
2023/09/06 05:53:54;;;;;;;0.50;0.30;;;;;;;22.40;73.42;95601.38;5070540;28;20563;-51
2023/09/06 05:56:22;;;;;;;0.50;0.27;;;;;;;22.43;73.42;95600.72;5071037;28;20882;-51
2023/09/06 05:58:50;;;;;;;0.50;0.40;;;;;;;22.42;73.45;95615.34;5070074;28;21007;-51
2023/09/06 06:01:19;;;;;;;0.40;0.30;;;;;;;22.33;73.50;95597.66;5070782;28;20440;-51
2023/09/06 06:03:48;;;;;;;0.50;0.40;;;;;;;22.09;73.61;95590.31;5044469;28;20445;-51
2023/09/06 06:06:18;;;;;;;0.53;0.53;;;;;;;22.25;72.84;95612.84;5070738;28;20464;-51
2023/09/06 06:08:48;;;;;;;0.50;0.40;;;;;;;22.33;73.77;95611.97;5070948;28;20536;-50
2023/09/06 06:11:16;;;;;;;1.37;0.43;;;;;;;22.30;74.76;95619.94;5070193;28;20441;-51
2023/09/06 06:13:45;;;;;;;0.70;0.30;;;;;;;22.46;73.12;95618.97;5071003;28;20560;-50
2023/09/06 06:16:23;;;;;;;0.50;0.37;;;;;;;22.35;72.99;95598.09;5069908;28;20499;-50
2023/09/06 06:18:52;;;;;;;0.40;0.30;;;;;;;22.63;71.94;95626.06;5070825;28;20536;-50
2023/09/06 06:21:20;;;;;;;0.50;0.30;;;;;;;22.53;73.45;95632.69;5070698;28;20438;-50
2023/09/06 06:23:50;;;;;;;0.40;0.30;;;;;;;22.46;74.36;95637.88;5070295;28;20448;-50
2023/09/06 06:26:20;;;;;;;0.50;0.37;;;;;;;22.62;72.50;95643.41;5073535;28;20478;-50
2023/09/06 06:28:49;;;;;;;0.50;0.40;;;;;;;22.27;72.13;95563.91;5074994;28;20483;-50
2023/09/06 06:31:18;;;;;;;0.40;0.30;;;;;;;22.45;73.44;95620.06;5074729;28;20854;-50
2023/09/06 06:37:28;;;;;;;0.40;0.30;;;;;;;22.41;73.98;95657.00;5071576;28;20646;-50
2023/09/06 06:39:58;;;;;;;0.40;0.30;;;;;;;22.39;74.37;95648.41;5073216;28;20446;-51
2023/09/06 06:42:28;;;;;;;0.40;0.30;;;;;;;22.27;74.18;95664.59;5074692;28;20469;-51
2023/09/06 06:44:56;;;;;;;0.40;0.30;;;;;;;22.24;74.06;95673.38;5074726;28;20496;-51
2023/09/06 06:47:24;;;;;;;0.50;0.50;;;;;;;22.25;75.02;95669.56;5074422;28;20925;-51
2023/09/06 06:49:54;;;;;;;0.90;0.40;;;;;;;22.12;75.14;95676.03;5073355;28;20501;-51
2023/09/06 06:52:23;;;;;;;0.77;0.57;;;;;;;22.32;73.96;95679.78;5061491;28;20445;-51
2023/09/06 06:54:51;;;;;;;0.60;0.40;;;;;;;22.36;74.70;95672.63;5074232;28;20473;-51
2023/09/06 06:57:21;;;;;;;0.50;0.30;;;;;;;22.31;74.53;95691.75;5073958;28;20610;-51
2023/09/06 06:59:49;;;;;;;0.60;0.40;;;;;;;22.33;75.12;95686.78;5073956;28;20440;-51
2023/09/06 07:02:17;;;;;;;0.40;0.30;;;;;;;22.26;75.24;95694.66;5074202;28;20528;-51
2023/09/06 07:04:46;;;;;;;0.70;0.67;;;;;;;22.34;74.56;95686.44;5073974;28;20808;-51
2023/09/06 07:07:14;;;;;;;0.50;0.30;;;;;;;22.43;74.47;95686.34;5074454;28;20441;-51
2023/09/06 07:09:43;;;;;;;0.70;0.70;;;;;;;22.17;74.90;95694.72;5073971;28;20898;-51
2023/09/06 07:12:12;;;;;;;0.60;0.43;;;;;;;22.25;74.53;95696.56;5074075;28;20437;-51
2023/09/06 07:14:42;;;;;;;0.40;0.40;;;;;;;22.25;75.32;95696.56;5073329;28;20469;-51
2023/09/06 07:17:10;;;;;;;0.50;0.50;;;;;;;22.39;74.31;95697.03;5073833;28;20457;-51
2023/09/06 07:19:38;;;;;;;1.10;0.67;;;;;;;22.34;74.25;95693.78;5073390;28;20442;-52
2023/09/06 07:22:07;;;;;;;0.50;0.40;;;;;;;21.95;75.25;95692.41;5073756;28;20465;-50
2023/09/06 07:24:35;;;;;;;1.17;0.70;;;;;;;21.86;76.96;95702.47;5073254;28;20525;-50
2023/09/06 07:27:04;;;;;;;0.60;0.33;;;;;;;22.08;75.40;95702.94;5073554;28;20993;-51
2023/09/06 07:29:32;;;;;;;0.50;0.43;;;;;;;22.29;74.56;95708.25;5072947;28;20885;-51
2023/09/06 07:32:03;;;;;;;0.57;0.43;;;;;;;22.09;75.75;95717.19;5073511;28;20503;-51
2023/09/06 07:34:32;;;;;;;0.53;0.53;;;;;;;22.30;74.67;95715.25;5073157;28;20480;-51
2023/09/06 07:37:00;;;;;;;0.50;0.40;;;;;;;22.42;75.01;95717.19;5072609;28;20472;-50
2023/09/06 07:39:28;;;;;;;0.70;0.70;;;;;;;22.20;75.79;95718.38;5046761;28;20433;-50
2023/09/06 07:41:57;;;;;;;0.77;0.60;;;;;;;22.34;75.00;95721.56;5073256;28;20554;-51
2023/09/06 07:44:24;;;;;;;0.80;0.50;;;;;;;22.52;75.11;95722.94;5073479;28;20528;-51
2023/09/06 07:46:52;;;;;;;0.40;0.20;;;;;;;22.44;74.91;95731.16;5072582;28;20987;-51
2023/09/06 07:49:22;;;;;;;0.50;0.40;;;;;;;22.39;75.22;95715.16;5073229;28;20818;-50
2023/09/06 07:51:54;;;;;;;0.50;0.50;;;;;;;22.21;74.98;95703.75;5072640;28;20449;-51
2023/09/06 07:54:23;;;;;;;0.93;0.83;;;;;;;21.66;75.55;95687.88;5072995;28;20468;-50
2023/09/06 07:56:52;;;;;;;0.60;0.50;;;;;;;21.86;76.05;95730.25;5065269;28;20453;-51
2023/09/06 07:59:23;;;;;;;0.40;0.40;;;;;;;21.69;76.63;95673.72;5072876;28;20438;-54
2023/09/06 08:01:51;;;;;;;0.80;0.80;;;;;;;22.21;75.97;95728.06;5073210;28;20765;-53
2023/09/06 08:04:20;;;;;;;0.50;0.40;;;;;;;21.87;75.16;95664.38;5072776;28;20448;-53
2023/09/06 08:06:50;;;;;;;0.50;0.30;;;;;;;22.44;75.16;95731.94;5072675;28;20437;-53
2023/09/06 08:09:19;;;;;;;1.00;0.90;;;;;;;22.35;75.06;95727.75;5072972;28;20849;-53
2023/09/06 08:11:47;;;;;;;0.70;0.50;;;;;;;22.25;74.82;95728.16;5072961;28;20433;-56
2023/09/06 08:14:16;;;;;;;0.40;0.30;;;;;;;22.28;75.17;95728.31;5072524;28;20441;-56
2023/09/06 08:16:45;;;;;;;0.90;0.60;;;;;;;22.35;75.60;95738.56;5059863;28;20438;-56
2023/09/06 08:19:13;;;;;;;1.10;1.03;;;;;;;22.38;74.20;95733.28;5073064;28;20438;-56
2023/09/06 08:21:42;;;;;;;0.40;0.40;;;;;;;22.34;74.30;95731.59;5072641;28;20503;-55
2023/09/06 08:24:12;;;;;;;0.80;0.60;;;;;;;22.37;74.10;95734.41;5072595;28;20503;-56
2023/09/06 08:26:40;;;;;;;0.93;0.93;;;;;;;22.36;74.69;95734.75;5072783;28;20441;-55
2023/09/06 08:29:09;;;;;;;0.80;0.80;;;;;;;22.48;74.06;95740.16;5072294;28;20445;-55
2023/09/06 08:31:37;;;;;;;0.60;0.47;;;;;;;22.62;73.68;95721.75;5062996;28;20441;-55
2023/09/06 08:34:06;;;;;;;0.83;0.70;;;;;;;22.80;73.31;95733.16;5072003;28;20539;-55
2023/09/06 08:36:34;;;;;;;1.00;0.57;;;;;;;22.66;73.19;95742.38;5072130;28;21142;-55
2023/09/06 08:39:03;;;;;;;0.50;0.50;;;;;;;22.57;72.96;95747.06;5071669;28;20524;-55
2023/09/06 08:41:33;;;;;;;0.67;0.67;;;;;;;22.42;72.86;95722.59;5072454;28;20538;-55
2023/09/06 08:44:06;;;;;;;1.90;0.60;;;;;;;22.51;73.70;95740.31;5072122;28;20441;-55
2023/09/06 08:46:40;;;;;;;6.43;0.40;;;;;;;22.71;73.20;95731.38;5071906;28;20452;-55
2023/09/06 08:49:10;;;;;;;0.80;0.70;;;;;;;22.60;73.17;95738.28;5071323;28;20443;-55
2023/09/06 08:51:40;;;;;;;0.50;0.50;;;;;;;22.65;72.59;95745.41;5071900;28;20453;-55
2023/09/06 08:54:09;;;;;;;1.10;0.70;;;;;;;22.66;73.19;95745.09;5072202;28;20457;-55
2023/09/06 08:56:40;;;;;;;0.50;0.30;;;;;;;22.86;73.17;95748.03;5072340;28;20515;-55
2023/09/06 08:59:08;;;;;;;0.50;0.40;;;;;;;22.86;73.17;95748.03;5072566;28;20469;-55
2023/09/06 09:01:37;;;;;;;1.27;0.90;;;;;;;22.70;73.06;95758.69;5071770;28;20433;-55
2023/09/06 09:04:06;;;;;;;1.37;0.60;;;;;;;22.53;73.33;95740.75;5071626;28;20442;-55
2023/09/06 09:06:35;;;;;;;0.83;0.83;;;;;;;22.76;72.91;95757.38;5070664;28;20446;-53
2023/09/06 09:09:17;;;;;;;0.60;0.53;;;;;;;22.81;72.94;95754.44;5071362;28;20469;-54
2023/09/06 09:11:51;;;;;;;1.27;1.17;;;;;;;22.85;72.21;95747.22;5071772;28;20441;-54
2023/09/06 09:14:21;;;;;;;1.43;1.27;;;;;;;22.95;72.22;95759.50;5071404;28;20442;-54
2023/09/06 09:16:56;;;;;;;2.30;1.83;;;;;;;22.89;70.94;95760.88;5045828;28;20475;-53
2023/09/06 09:19:25;;;;;;;1.13;0.77;;;;;;;23.11;71.29;95749.63;5071208;28;20437;-54
2023/09/06 09:21:56;;;;;;;0.83;0.80;;;;;;;23.04;69.71;95752.91;5071668;28;20437;-55
2023/09/06 09:24:26;;;;;;;1.23;1.13;;;;;;;23.00;70.71;95753.88;5071411;28;20446;-54
2023/09/06 09:26:57;;;;;;;0.77;0.70;;;;;;;23.16;70.88;95765.63;5071333;28;20803;-54
2023/09/06 09:29:26;;;;;;;6.87;1.00;;;;;;;22.72;69.26;95700.50;5070581;28;20437;-54
2023/09/06 09:31:54;;;;;;;0.60;0.40;;;;;;;22.77;69.76;95724.59;5071033;28;20480;-54
2023/09/06 09:34:22;;;;;;;1.70;0.70;;;;;;;22.90;70.47;95754.34;5071075;28;20512;-54
2023/09/06 09:36:52;;;;;;;1.30;0.33;;;;;;;23.12;69.94;95757.38;5071155;28;20543;-54
2023/09/06 09:39:26;;;;;;;2.23;0.70;;;;;;;23.02;70.09;95759.78;5070949;28;20486;-54
2023/09/06 09:41:59;;;;;;;0.60;0.60;;;;;;;22.76;70.39;95724.94;5071085;28;20445;-54
2023/09/06 09:44:28;;;;;;;0.47;0.30;;;;;;;23.09;69.29;95765.41;5071599;28;20456;-54
2023/09/06 09:46:58;;;;;;;0.60;0.50;;;;;;;23.12;69.74;95767.44;5070915;28;20445;-54
2023/09/06 09:49:41;;;;;;;1.03;0.97;;;;;;;23.01;69.65;95760.88;5071220;28;21015;-55
2023/09/06 09:52:14;;;;;;;1.43;1.03;;;;;;;22.80;70.50;95769.06;5071038;28;20951;-56
2023/09/06 09:54:45;;;;;;;0.63;0.63;;;;;;;22.41;70.35;95704.81;5071371;28;20444;-56
2023/09/06 09:57:21;;;;;;;0.60;0.40;;;;;;;22.63;71.05;95770.06;5071125;28;20543;-55
2023/09/06 09:59:52;;;;;;;0.70;0.57;;;;;;;22.49;71.53;95771.47;5070728;28;20515;-55
2023/09/06 10:02:23;;;;;;;0.70;0.70;;;;;;;22.76;71.10;95779.00;5071056;28;20445;-55
2023/09/06 10:05:12;;;;;;;0.53;0.50;;;;;;;22.43;71.18;95778.19;5071088;28;20491;-55
2023/09/06 10:07:42;;;;;;;0.70;0.70;;;;;;;22.66;70.41;95769.41;5071052;28;20444;-56
2023/09/06 10:10:18;;;;;;;1.43;0.67;;;;;;;22.71;70.51;95768.41;5070812;28;20449;-55
2023/09/06 10:12:51;;;;;;;0.50;0.50;;;;;;;22.44;70.85;95748.13;5070831;28;20452;-57
2023/09/06 10:15:23;;;;;;;1.10;0.90;;;;;;;22.66;70.46;95769.41;5070685;28;20502;-57
2023/09/06 10:17:55;;;;;;;0.60;0.50;;;;;;;22.46;70.40;95729.72;5070574;28;20449;-57
2023/09/06 10:20:26;;;;;;;1.40;1.30;;;;;;;22.47;70.80;95765.59;5070780;28;20445;-57
2023/09/06 10:22:57;;;;;;;1.90;1.00;;;;;;;22.59;70.44;95768.34;5070892;28;20437;-56
2023/09/06 10:25:26;;;;;;;2.10;0.83;;;;;;;22.74;70.54;95765.03;5070393;28;20438;-56
2023/09/06 10:27:57;;;;;;;0.87;0.60;;;;;;;22.78;70.13;95763.22;5070543;28;20529;-56
2023/09/06 10:30:43;;;;;;;2.77;1.30;;;;;;;22.86;69.98;95758.84;5070763;28;20441;-56
2023/09/06 10:33:53;;;;;;;0.90;0.90;;;;;;;22.78;70.42;95733.50;5070555;28;20441;-56
2023/09/06 10:36:27;;;;;;;0.73;0.70;;;;;;;22.73;69.88;95710.19;5070652;28;21012;-55
2023/09/06 10:39:15;;;;;;;0.60;0.60;;;;;;;22.86;69.22;95761.53;5070754;28;20437;-57
2023/09/06 10:42:17;;;;;;;0.93;0.93;;;;;;;23.03;68.87;95759.41;5070900;28;20536;-56
2023/09/06 10:45:12;;;;;;;1.50;1.07;;;;;;;23.12;68.58;95762.78;5052616;28;20477;-56
2023/09/06 10:47:42;;;;;;;4.20;2.90;;;;;;;22.93;69.66;95753.66;5047353;28;20776;-56
2023/09/06 10:50:19;;;;;;;1.07;1.07;;;;;;;23.09;69.16;95749.19;5069888;28;20476;-56
2023/09/06 10:52:52;;;;;;;1.10;1.00;;;;;;;23.03;68.98;95750.53;5070262;28;20516;-56
2023/09/06 10:55:22;;;;;;;1.20;1.17;;;;;;;22.65;68.72;95689.47;5070329;28;20437;-56
2023/09/06 10:57:55;;;;;;;13.17;1.17;;;;;;;22.84;68.78;95731.38;5070725;28;20476;-56
2023/09/06 11:00:28;;;;;;;1.83;1.73;;;;;;;23.07;69.62;95751.44;5070048;28;20465;-56
2023/09/06 11:03:18;;;;;;;1.20;1.10;;;;;;;23.21;68.72;95749.16;5070014;28;20965;-56
2023/09/06 11:05:53;;;;;;;0.80;0.80;;;;;;;23.44;68.28;95746.81;5070725;28;20510;-56
2023/09/06 11:08:30;;;;;;;0.70;0.60;;;;;;;23.31;68.55;95743.31;5070148;28;20437;-56
2023/09/06 11:11:06;;;;;;;1.00;0.80;;;;;;;22.99;68.04;95741.50;5070074;28;20823;-57
2023/09/06 11:13:35;;;;;;;1.23;1.00;;;;;;;23.35;68.29;95744.22;5073388;28;20527;-56
2023/09/06 11:16:06;;;;;;;1.00;0.90;;;;;;;23.39;67.42;95745.13;5073467;28;20496;-56
2023/09/06 11:18:43;;;;;;;1.03;1.03;;;;;;;23.47;68.36;95728.00;5073679;28;20473;-56
2023/09/06 11:21:16;;;;;;;1.00;1.00;;;;;;;23.38;67.99;95737.38;5073178;28;20996;-56
2023/09/06 11:23:46;;;;;;;0.67;0.67;;;;;;;23.56;66.83;95717.03;5071837;28;20441;-56
2023/09/06 11:26:14;;;;;;;0.70;0.70;;;;;;;23.32;66.98;95728.66;5073831;28;20454;-55
2023/09/06 11:28:44;;;;;;;1.73;1.63;;;;;;;23.18;67.42;95733.63;5073111;28;20437;-56
2023/09/06 11:31:25;;;;;;;1.30;1.20;;;;;;;22.62;67.37;95673.91;5073576;28;20445;-57
2023/09/06 11:33:55;;;;;;;0.80;0.80;;;;;;;23.22;67.40;95735.34;5073361;28;20966;-56
2023/09/06 11:36:30;;;;;;;1.37;1.27;;;;;;;23.15;67.30;95728.88;5073249;28;20547;-56
2023/09/06 11:39:09;;;;;;;1.43;1.03;;;;;;;23.10;67.32;95721.78;5072777;28;20437;-56
2023/09/06 11:41:39;;;;;;;0.70;0.70;;;;;;;23.20;66.49;95728.66;5073056;28;20433;-56
2023/09/06 11:44:10;;;;;;;1.63;1.53;;;;;;;23.04;66.48;95722.38;5072973;28;20521;-55
2023/09/06 11:46:42;;;;;;;0.73;0.73;;;;;;;23.23;67.88;95717.94;5073330;28;20441;-56
2023/09/06 11:49:13;;;;;;;0.60;0.50;;;;;;;23.17;66.99;95689.56;5072856;28;20481;-55
2023/09/06 11:51:43;;;;;;;1.90;1.80;;;;;;;23.33;67.59;95709.38;5072952;28;20444;-55
2023/09/06 11:54:12;;;;;;;1.23;1.23;;;;;;;23.31;67.06;95705.44;5073346;28;21021;-55